Terminal Aerodrome Forecast
Issued by NWS

Home | Current Version | Previous Version | Text Only | Print | Product List | Glossary On
Versions: 1 2 3 4 5 6 7 8 9 10 11 12 13 14 15 16
000
FTUS44 KSJT 262100 AAA
TAFJCT
TAF AMD
KJCT 262131Z 2622/2718 VRB03KT P6SM SKC
     FM270800 36004KT P6SM OVC100
     FM271000 02006KT P6SM OVC050
     FM271500 02012KT P6SM OVC100=

USA.gov is the U.S. government's official web portal to all federal, state and local government web resources and services.